createdAt,value
2023-01-11T00:00:44.976Z,3.35
2023-01-11T00:03:11.653Z,3.45
2023-01-11T00:05:42.379Z,3.38
2023-01-11T00:08:09.218Z,3.42
2023-01-11T00:10:36.123Z,3.80
2023-01-11T00:13:03.395Z,3.88
2023-01-11T00:15:30.491Z,3.95
2023-01-11T00:17:57.665Z,3.38
2023-01-11T00:20:24.873Z,3.72
2023-01-11T00:22:51.498Z,3.35
2023-01-11T00:25:18.127Z,3.80
2023-01-11T00:27:44.551Z,3.80
2023-01-11T00:30:11.646Z,4.50
2023-01-11T00:32:38.015Z,3.72
2023-01-11T00:35:04.789Z,4.00
2023-01-11T00:37:31.227Z,4.03
2023-01-11T00:39:57.646Z,3.90
2023-01-11T00:42:42.544Z,3.75
2023-01-11T00:45:27.874Z,3.38
2023-01-11T00:47:57.309Z,3.88
2023-01-11T00:50:25.158Z,4.28
2023-01-11T00:52:51.724Z,3.92
2023-01-11T00:55:18.160Z,3.50
2023-01-11T00:57:44.552Z,3.95
2023-01-11T01:00:11.605Z,4.03
2023-01-11T01:02:38.201Z,4.10
2023-01-11T01:05:04.895Z,3.95
2023-01-11T01:07:31.311Z,4.32
2023-01-11T01:09:57.831Z,3.97
2023-01-11T01:12:42.979Z,4.68
2023-01-11T01:15:09.909Z,4.20
2023-01-11T01:17:36.296Z,3.88
2023-01-11T01:20:02.779Z,4.20
2023-01-11T01:22:29.153Z,3.90
2023-01-11T01:24:55.587Z,3.83
2023-01-11T01:27:22.009Z,4.25
2023-01-11T01:29:48.394Z,4.05
2023-01-11T01:32:14.769Z,4.35
2023-01-11T01:34:41.176Z,4.40
2023-01-11T01:37:08.278Z,4.30
2023-01-11T01:39:34.690Z,4.60
2023-01-11T01:42:01.215Z,4.10
2023-01-11T01:44:54.465Z,4.55
2023-01-11T01:47:27.069Z,4.63
2023-01-11T01:49:53.791Z,4.43
2023-01-11T01:52:20.703Z,4.65
2023-01-11T01:54:49.197Z,4.47
2023-01-11T01:57:25.233Z,4.38
2023-01-11T01:59:52.605Z,4.60
2023-01-11T02:02:22.308Z,4.80
2023-01-11T02:04:49.151Z,5.13
2023-01-11T02:07:26.493Z,4.28
2023-01-11T02:09:59.129Z,4.60
2023-01-11T02:12:30.320Z,4.20
2023-01-11T02:15:00.569Z,4.78
2023-01-11T02:17:27.187Z,4.43
2023-01-11T02:20:31.115Z,4.82
2023-01-11T02:23:26.353Z,4.70
2023-01-11T02:26:31.375Z,4.13
2023-01-11T02:29:00.852Z,3.90
2023-01-11T02:31:39.525Z,4.35
2023-01-11T02:34:15.882Z,4.03
2023-01-11T02:37:01.296Z,4.15
2023-01-11T02:39:36.399Z,3.63
2023-01-11T02:42:39.911Z,3.80
2023-01-11T02:45:18.750Z,3.70
2023-01-11T02:48:00.014Z,3.85
2023-01-11T02:50:45.196Z,4.03
2023-01-11T02:53:27.717Z,4.10
2023-01-11T02:55:58.562Z,3.33
2023-01-11T02:58:28.342Z,3.28
2023-01-11T03:00:58.540Z,3.90
2023-01-11T03:03:27.744Z,3.13
2023-01-11T03:05:59.059Z,3.35
2023-01-11T03:08:51.518Z,3.90
2023-01-11T03:11:45.183Z,3.78
2023-01-11T03:14:23.396Z,3.40
2023-01-11T03:17:06.779Z,3.63
2023-01-11T03:19:39.305Z,3.58
2023-01-11T03:22:31.214Z,3.90
2023-01-11T03:25:16.334Z,3.28
2023-01-11T03:27:51.593Z,3.65
2023-01-11T03:30:37.233Z,3.70
2023-01-11T03:33:13.480Z,3.63
2023-01-11T03:35:48.076Z,3.30
2023-01-11T03:38:24.973Z,3.00
2023-01-11T03:40:58.638Z,3.63
2023-01-11T03:43:29.907Z,3.65
2023-01-11T03:46:06.477Z,3.30
2023-01-11T03:48:55.134Z,3.50
2023-01-11T03:51:31.112Z,3.70
2023-01-11T03:54:04.669Z,3.50
2023-01-11T03:56:56.654Z,3.40
2023-01-11T03:59:23.169Z,3.42
2023-01-11T04:01:49.586Z,3.63
2023-01-11T04:04:15.965Z,3.17
2023-01-11T04:06:42.380Z,3.28
2023-01-11T04:09:08.788Z,3.30
2023-01-11T04:11:35.296Z,3.22
2023-01-11T04:14:01.667Z,3.50
2023-01-11T04:16:28.123Z,3.22
2023-01-11T04:18:54.564Z,3.70
2023-01-11T04:21:21.042Z,3.72
2023-01-11T04:23:47.521Z,3.50
2023-01-11T04:26:13.911Z,3.50
2023-01-11T04:28:40.330Z,3.55
2023-01-11T04:31:06.695Z,3.85
2023-01-11T04:33:33.078Z,3.20
2023-01-11T04:35:59.440Z,3.55
2023-01-11T04:38:27.190Z,3.13
2023-01-11T04:41:13.540Z,2.97
2023-01-11T04:43:39.936Z,3.00
2023-01-11T04:46:06.637Z,3.15
2023-01-11T04:48:33.590Z,3.15
2023-01-11T04:50:59.947Z,2.83
2023-01-11T04:53:26.350Z,2.90
2023-01-11T04:55:53.801Z,3.10
2023-01-11T04:58:20.187Z,3.17
2023-01-11T05:00:46.672Z,3.40
2023-01-11T05:03:13.092Z,3.58
2023-01-11T05:05:39.433Z,3.40
2023-01-11T05:08:06.476Z,3.42
2023-01-11T05:10:32.878Z,3.10
2023-01-11T05:12:59.231Z,3.05
2023-01-11T05:15:25.609Z,3.10
2023-01-11T05:17:51.991Z,3.30
2023-01-11T05:20:18.423Z,3.03
2023-01-11T05:22:44.811Z,3.15
2023-01-11T05:25:11.254Z,3.10
2023-01-11T05:27:37.621Z,3.58
2023-01-11T05:30:04.533Z,3.08
2023-01-11T05:32:30.925Z,2.90
2023-01-11T05:34:57.300Z,2.67
2023-01-11T05:37:23.737Z,2.60
2023-01-11T05:39:50.125Z,2.40
2023-01-11T05:42:16.722Z,2.60
2023-01-11T05:45:01.711Z,2.58
2023-01-11T05:47:28.149Z,2.90
2023-01-11T05:49:54.534Z,2.40
2023-01-11T05:52:20.914Z,2.28
2023-01-11T05:54:47.295Z,2.40
2023-01-11T05:57:13.665Z,2.30
2023-01-11T05:59:40.144Z,2.42
2023-01-11T06:02:06.646Z,2.47
2023-01-11T06:04:33.121Z,2.40
2023-01-11T06:06:59.558Z,2.60
2023-01-11T06:09:26.066Z,2.50
2023-01-11T06:11:52.458Z,2.40
2023-01-11T06:14:18.946Z,2.70
2023-01-11T06:16:46.458Z,2.40
2023-01-11T06:19:12.910Z,2.45
2023-01-11T06:21:39.812Z,2.83
2023-01-11T06:24:06.559Z,2.60
2023-01-11T06:26:32.909Z,2.53
2023-01-11T06:28:59.291Z,2.80
2023-01-11T06:31:25.691Z,2.60
2023-01-11T06:33:52.143Z,2.90
2023-01-11T06:36:18.584Z,2.80
2023-01-11T06:38:45.006Z,2.90
2023-01-11T06:41:11.978Z,2.63
2023-01-11T06:43:41.566Z,2.80
2023-01-11T06:46:15.655Z,3.40
2023-01-11T06:48:43.125Z,2.70
2023-01-11T06:51:11.946Z,2.83
2023-01-11T06:53:39.052Z,3.13
2023-01-11T06:56:05.920Z,3.00
2023-01-11T06:58:32.360Z,3.00
2023-01-11T07:00:59.418Z,2.80
2023-01-11T07:03:26.210Z,2.75
2023-01-11T07:05:54.009Z,2.85
2023-01-11T07:08:20.624Z,2.50
2023-01-11T07:10:47.223Z,2.47
2023-01-11T07:13:16.313Z,2.90
2023-01-11T07:15:44.339Z,2.95
2023-01-11T07:18:11.485Z,3.05
2023-01-11T07:20:38.008Z,3.40
2023-01-11T07:23:04.431Z,3.00
2023-01-11T07:25:31.127Z,2.75
2023-01-11T07:27:59.552Z,2.70
2023-01-11T07:30:27.963Z,2.90
2023-01-11T07:32:54.815Z,3.00
2023-01-11T07:35:21.626Z,2.70
2023-01-11T07:37:48.096Z,2.95
2023-01-11T07:40:16.313Z,3.00
2023-01-11T07:43:05.992Z,3.15
2023-01-11T07:45:44.553Z,3.20
2023-01-11T07:48:12.150Z,2.97
2023-01-11T07:50:41.208Z,3.38
2023-01-11T07:53:09.323Z,4.15
2023-01-11T07:55:36.120Z,3.30
2023-01-11T07:58:03.147Z,3.65
2023-01-11T08:00:30.025Z,3.10
2023-01-11T08:02:56.594Z,3.35
2023-01-11T08:05:24.648Z,3.10
2023-01-11T08:07:51.201Z,3.30
2023-01-11T08:10:18.096Z,3.35
2023-01-11T08:13:05.163Z,3.80
2023-01-11T08:15:33.050Z,3.47
2023-01-11T08:18:00.955Z,3.40
2023-01-11T08:20:27.398Z,3.40
2023-01-11T08:22:54.043Z,3.60
2023-01-11T08:25:21.056Z,3.70
2023-01-11T08:27:47.439Z,3.38
2023-01-11T08:30:14.396Z,3.55
2023-01-11T08:32:41.082Z,3.80
2023-01-11T08:35:07.862Z,3.80
2023-01-11T08:37:34.269Z,4.40
2023-01-11T08:40:00.672Z,4.05
2023-01-11T08:42:27.158Z,4.95
2023-01-11T08:44:53.566Z,4.75
2023-01-11T08:47:19.974Z,4.60
2023-01-11T08:49:46.323Z,5.20
2023-01-11T08:52:14.155Z,5.30
2023-01-11T08:54:41.321Z,5.07
2023-01-11T08:57:08.262Z,4.97
2023-01-11T08:59:34.922Z,5.05
2023-01-11T09:02:02.724Z,4.82
2023-01-11T09:04:29.167Z,5.30
2023-01-11T09:06:55.580Z,4.82
2023-01-11T09:09:22.179Z,5.50
2023-01-11T09:11:54.759Z,5.32
2023-01-11T09:14:22.884Z,5.28
2023-01-11T09:16:49.363Z,4.95
2023-01-11T09:19:15.835Z,4.55
2023-01-11T09:21:42.472Z,4.80
2023-01-11T09:24:08.927Z,4.80
2023-01-11T09:26:35.951Z,5.10
2023-01-11T09:29:02.457Z,5.25
2023-01-11T09:31:28.946Z,5.57
2023-01-11T09:33:55.544Z,5.10
2023-01-11T09:36:23.548Z,4.95
2023-01-11T09:38:52.711Z,5.15
2023-01-11T09:41:43.924Z,5.15
2023-01-11T09:44:18.924Z,5.22
2023-01-11T09:46:50.265Z,4.88
2023-01-11T09:49:22.682Z,5.38
2023-01-11T09:51:51.608Z,5.25
2023-01-11T09:54:24.503Z,5.15
2023-01-11T09:57:08.138Z,5.53
2023-01-11T09:59:50.736Z,5.13
2023-01-11T10:02:28.958Z,5.57
2023-01-11T10:05:18.597Z,5.10
2023-01-11T10:18:22.820Z,5.00
2023-01-11T10:18:29.666Z,5.10
2023-01-11T10:20:37.884Z,4.80
2023-01-11T10:23:11.539Z,4.72
2023-01-11T10:25:50.243Z,4.82
2023-01-11T10:28:31.908Z,4.80
2023-01-11T10:30:58.557Z,4.78
2023-01-11T10:33:52.216Z,4.53
2023-01-11T10:36:46.269Z,4.70
2023-01-11T10:39:49.823Z,4.18
2023-01-11T10:42:22.684Z,3.20
2023-01-11T10:45:00.511Z,3.20
2023-01-11T10:47:31.746Z,3.00
2023-01-11T10:50:14.248Z,2.47
2023-01-11T10:53:06.458Z,2.95
2023-01-11T10:55:44.658Z,2.70
2023-01-11T10:58:22.848Z,2.80
2023-01-11T11:01:01.024Z,3.22
2023-01-11T11:03:48.730Z,2.72
2023-01-11T11:06:18.155Z,2.58
2023-01-11T11:09:13.222Z,2.80
2023-01-11T11:11:53.034Z,2.95
2023-01-11T11:14:26.150Z,2.60
2023-01-11T11:17:24.146Z,3.10
2023-01-11T11:19:51.302Z,3.00
2023-01-11T11:22:18.940Z,2.97
2023-01-11T11:25:07.535Z,3.05
2023-01-11T11:27:55.630Z,2.80
2023-01-11T11:30:29.334Z,2.80
2023-01-11T11:33:06.290Z,2.75
2023-01-11T11:35:32.660Z,3.33
2023-01-11T11:37:59.729Z,3.17
2023-01-11T11:40:37.751Z,3.17
2023-01-11T11:43:37.980Z,2.92
2023-01-11T11:46:19.429Z,3.00
2023-01-11T11:49:15.589Z,3.10
2023-01-11T11:51:43.372Z,2.90
2023-01-11T11:54:19.287Z,3.10
2023-01-11T11:56:45.933Z,3.08
2023-01-11T11:59:17.339Z,3.00
2023-01-11T12:01:47.370Z,2.90
2023-01-11T12:04:15.287Z,3.60
2023-01-11T12:06:42.690Z,3.15
2023-01-11T12:09:30.363Z,2.92
2023-01-11T12:11:57.565Z,2.55
2023-01-11T12:14:27.960Z,3.08
2023-01-11T12:19:38.710Z,2.85
2023-01-11T12:22:25.516Z,3.00
2023-01-11T12:25:26.901Z,2.75
2023-01-11T12:28:04.750Z,3.00
2023-01-11T12:30:42.102Z,3.28
2023-01-11T12:33:30.763Z,3.10
2023-01-11T12:36:11.671Z,3.10
2023-01-11T12:38:55.996Z,2.85
2023-01-11T12:41:44.656Z,3.00
2023-01-11T12:44:17.163Z,2.70
2023-01-11T12:46:53.334Z,3.22
2023-01-11T12:49:44.224Z,3.45
2023-01-11T12:52:32.572Z,2.95
2023-01-11T12:55:25.537Z,3.03
2023-01-11T12:58:08.114Z,2.78
2023-01-11T13:01:02.304Z,3.00
2023-01-11T13:03:50.451Z,3.30
2023-01-11T13:06:32.145Z,2.70
2023-01-11T13:09:01.495Z,3.10
2023-01-11T13:11:43.534Z,3.20
2023-01-11T13:14:37.322Z,3.25
2023-01-11T13:17:23.503Z,3.20
2023-01-11T13:20:04.883Z,3.08
2023-01-11T13:22:40.303Z,3.17
2023-01-11T13:25:19.028Z,3.17
2023-01-11T13:27:47.054Z,3.30
2023-01-11T13:30:17.759Z,2.80
2023-01-11T13:32:50.993Z,3.20
2023-01-11T13:35:21.698Z,3.00
2023-01-11T13:37:56.958Z,3.10
2023-01-11T13:40:32.786Z,3.30
2023-01-11T13:43:19.797Z,3.35
2023-01-11T13:45:54.290Z,3.53
2023-01-11T13:48:26.796Z,4.40
2023-01-11T13:51:35.400Z,3.85
2023-01-11T13:54:11.724Z,3.40
2023-01-11T13:56:43.362Z,3.85
2023-01-11T13:59:22.249Z,3.83
2023-01-11T14:01:56.668Z,3.30
2023-01-11T14:04:55.930Z,3.92
2023-01-11T14:07:34.568Z,3.47
2023-01-11T14:10:04.025Z,3.78
2023-01-11T14:12:47.933Z,3.45
2023-01-11T14:15:32.753Z,3.53
2023-01-11T14:18:17.609Z,3.95
2023-01-11T14:20:51.984Z,3.92
2023-01-11T14:23:21.132Z,4.00
2023-01-11T14:26:06.215Z,3.60
2023-01-11T14:28:44.819Z,4.18
2023-01-11T14:31:32.307Z,4.53
2023-01-11T14:34:10.963Z,4.35
2023-01-11T14:36:56.177Z,4.68
2023-01-11T14:39:41.505Z,4.20
2023-01-11T14:42:44.989Z,4.15
2023-01-11T14:45:36.746Z,4.20
2023-01-11T14:48:28.329Z,4.18
2023-01-11T14:51:09.975Z,4.20
2023-01-11T14:53:43.898Z,4.35
2023-01-11T14:56:36.816Z,4.00
2023-01-11T14:59:06.530Z,3.92
2023-01-11T15:02:13.284Z,4.57
2023-01-11T15:04:52.106Z,4.32
2023-01-11T15:07:49.797Z,4.00
2023-01-11T15:10:28.477Z,4.18
2023-01-11T15:12:56.835Z,4.15
2023-01-11T15:15:47.469Z,4.20
2023-01-11T15:18:25.941Z,3.58
2023-01-11T15:20:55.523Z,3.72
2023-01-11T15:23:23.215Z,4.13
2023-01-11T15:26:00.111Z,4.00
2023-01-11T15:28:44.719Z,4.45
2023-01-11T15:31:34.537Z,3.90
2023-01-11T15:34:16.646Z,4.40
2023-01-11T15:37:13.731Z,4.07
2023-01-11T15:40:02.205Z,4.00
2023-01-11T15:42:49.134Z,3.97
2023-01-11T15:45:34.266Z,4.07
2023-01-11T15:48:27.290Z,3.60
2023-01-11T15:51:25.630Z,3.55
2023-01-11T15:54:29.850Z,3.75
2023-01-11T15:57:12.256Z,4.18
2023-01-11T15:59:50.607Z,3.58
2023-01-11T16:03:08.635Z,3.75
2023-01-11T16:05:39.495Z,3.78
2023-01-11T16:08:24.484Z,3.67
2023-01-11T16:11:12.228Z,3.75
2023-01-11T16:13:50.922Z,3.60
2023-01-11T16:16:29.029Z,3.92
2023-01-11T16:19:06.859Z,3.78
2023-01-11T16:21:39.278Z,4.15
2023-01-11T16:24:17.049Z,3.53
2023-01-11T16:26:44.161Z,4.38
2023-01-11T16:29:37.344Z,4.18
2023-01-11T16:32:18.389Z,3.85
2023-01-11T16:34:47.093Z,4.20
2023-01-11T16:37:37.313Z,4.60
2023-01-11T16:40:16.795Z,3.53
2023-01-11T16:42:50.997Z,3.97
2023-01-11T16:45:21.066Z,4.32
2023-01-11T16:48:01.965Z,4.70
2023-01-11T16:50:28.598Z,4.47
2023-01-11T16:52:57.391Z,4.78
2023-01-11T16:55:29.996Z,4.63
2023-01-11T16:58:00.092Z,4.03
2023-01-11T17:00:38.069Z,4.40
2023-01-11T17:03:26.555Z,4.30
2023-01-11T17:06:02.356Z,4.63
2023-01-11T17:08:31.908Z,4.00
2023-01-11T17:11:18.982Z,5.10
2023-01-11T17:13:54.544Z,5.80
2023-01-11T17:16:25.080Z,5.80
2023-01-11T17:18:51.689Z,5.43
2023-01-11T17:21:25.725Z,4.90
2023-01-11T17:23:54.806Z,4.70
2023-01-11T17:26:24.821Z,4.78
2023-01-11T17:28:57.237Z,4.95
2023-01-11T17:31:30.951Z,4.68
2023-01-11T17:34:26.115Z,4.65
2023-01-11T17:36:53.806Z,4.60
2023-01-11T17:39:36.694Z,3.95
2023-01-11T17:42:26.755Z,4.30
2023-01-11T17:45:13.107Z,4.53
2023-01-11T17:47:45.689Z,4.15
2023-01-11T17:50:20.744Z,4.10
2023-01-11T17:52:54.729Z,4.10
2023-01-11T17:55:26.537Z,4.05
2023-01-11T17:58:29.611Z,4.30
2023-01-11T18:01:18.278Z,4.57
2023-01-11T18:03:53.460Z,4.38
2023-01-11T18:06:27.450Z,4.07
2023-01-11T18:08:55.788Z,3.70
2023-01-11T18:11:28.978Z,3.80
2023-01-11T18:13:58.647Z,3.80
2023-01-11T18:16:25.499Z,3.70
2023-01-11T18:18:53.402Z,3.83
2023-01-11T18:21:25.911Z,4.10
2023-01-11T18:24:07.690Z,4.50
2023-01-11T18:26:34.236Z,3.83
2023-01-11T18:29:00.653Z,3.83
2023-01-11T18:31:27.025Z,4.20
2023-01-11T18:33:53.416Z,4.07
2023-01-11T18:36:22.273Z,4.10
2023-01-11T18:38:49.234Z,4.68
2023-01-11T18:41:35.782Z,4.53
2023-01-11T18:44:02.582Z,3.60
2023-01-11T18:46:29.209Z,3.60
2023-01-11T18:48:55.656Z,3.63
2023-01-11T18:51:33.039Z,4.32
2023-01-11T18:53:59.490Z,4.45
2023-01-11T18:56:25.881Z,4.20
2023-01-11T18:58:52.296Z,3.85
2023-01-11T19:01:18.972Z,3.95
2023-01-11T19:03:46.205Z,4.18
2023-01-11T19:06:13.212Z,4.63
2023-01-11T19:08:39.878Z,4.40
2023-01-11T19:11:06.336Z,4.53
2023-01-11T19:13:32.697Z,4.10
2023-01-11T19:16:01.396Z,4.30
2023-01-11T19:18:29.259Z,3.65
2023-01-11T19:21:01.832Z,4.32
2023-01-11T19:23:28.756Z,3.95
2023-01-11T19:26:01.258Z,4.50
2023-01-11T19:28:28.341Z,4.30
2023-01-11T19:30:54.787Z,5.00
2023-01-11T19:33:21.339Z,4.07
2023-01-11T19:35:49.352Z,4.93
2023-01-11T19:38:18.429Z,4.65
2023-01-11T19:40:45.892Z,4.30
2023-01-11T19:43:12.310Z,4.50
2023-01-11T19:45:38.675Z,4.95
2023-01-11T19:48:05.481Z,4.22
2023-01-11T19:50:32.017Z,4.10
2023-01-11T19:52:58.622Z,4.13
2023-01-11T19:55:24.993Z,4.60
2023-01-11T19:57:51.459Z,4.18
2023-01-11T20:00:20.409Z,4.43
2023-01-11T20:02:46.827Z,4.45
2023-01-11T20:05:13.608Z,5.10
2023-01-11T20:07:39.985Z,4.78
2023-01-11T20:10:06.556Z,4.45
2023-01-11T20:12:32.981Z,4.80
2023-01-11T20:15:01.240Z,4.35
2023-01-11T20:17:28.463Z,4.43
2023-01-11T20:19:55.204Z,4.78
2023-01-11T20:22:23.500Z,4.32
2023-01-11T20:24:50.691Z,5.10
2023-01-11T20:27:17.536Z,4.32
2023-01-11T20:29:43.995Z,4.65
2023-01-11T20:32:35.069Z,4.72
2023-01-11T20:34:57.093Z,4.97
2023-01-11T20:37:23.610Z,5.18
2023-01-11T20:39:50.146Z,5.97
2023-01-11T20:42:16.558Z,5.82
2023-01-11T20:44:42.962Z,5.75
2023-01-11T20:47:09.360Z,6.00
2023-01-11T20:49:35.817Z,5.75
2023-01-11T20:52:02.555Z,5.88
2023-01-11T20:54:28.943Z,5.70
2023-01-11T20:56:57.803Z,6.45
2023-01-11T20:59:24.846Z,5.47
2023-01-11T21:01:51.343Z,5.97
2023-01-11T21:04:18.892Z,6.22
2023-01-11T21:06:48.048Z,6.15
2023-01-11T21:09:16.821Z,6.22
2023-01-11T21:11:44.298Z,6.07
2023-01-11T21:14:13.629Z,6.20
2023-01-11T21:16:41.798Z,5.88
2023-01-11T21:19:12.280Z,5.90
2023-01-11T21:24:05.590Z,5.10
2023-01-11T21:26:34.428Z,5.65
2023-01-11T21:29:03.911Z,5.38
2023-01-11T21:31:33.822Z,5.22
2023-01-11T21:34:01.130Z,5.57
2023-01-11T21:36:29.319Z,5.80
2023-01-11T21:38:56.892Z,5.00
2023-01-11T21:41:46.775Z,5.45
2023-01-11T21:44:13.759Z,5.53
2023-01-11T21:46:40.542Z,5.63
2023-01-11T21:49:07.603Z,4.97
2023-01-11T21:51:34.608Z,5.75
2023-01-11T21:54:05.349Z,6.00
2023-01-11T21:56:32.011Z,5.10
2023-01-11T21:58:58.597Z,5.25
2023-01-11T22:01:24.985Z,5.22
2023-01-11T22:03:51.657Z,5.22
2023-01-11T22:06:18.262Z,5.15
2023-01-11T22:08:45.987Z,5.10
2023-01-11T22:11:15.108Z,4.97
2023-01-11T22:13:41.710Z,4.47
2023-01-11T22:16:13.612Z,4.43
2023-01-11T22:18:43.445Z,5.63
2023-01-11T22:21:15.339Z,4.75
2023-01-11T22:23:41.884Z,4.80
2023-01-11T22:26:11.323Z,5.50
2023-01-11T22:28:56.315Z,5.00
2023-01-11T22:31:23.576Z,5.45
2023-01-11T22:33:50.797Z,5.32
2023-01-11T22:36:17.497Z,5.28
2023-01-11T22:38:43.957Z,4.45
2023-01-11T22:41:10.749Z,4.88
2023-01-11T22:43:37.133Z,5.10
2023-01-11T22:46:03.724Z,5.05
2023-01-11T22:48:31.476Z,5.15
2023-01-11T22:50:58.515Z,5.00
2023-01-11T22:53:25.010Z,5.15
2023-01-11T22:55:51.362Z,5.68
2023-01-11T22:58:17.800Z,4.93
2023-01-11T23:00:44.251Z,5.07
2023-01-11T23:03:10.797Z,5.15
2023-01-11T23:05:37.300Z,4.82
2023-01-11T23:08:03.820Z,5.78
2023-01-11T23:10:30.203Z,4.95
2023-01-11T23:13:15.375Z,4.88
2023-01-11T23:15:41.768Z,4.90
2023-01-11T23:18:10.026Z,4.55
2023-01-11T23:20:36.521Z,5.32
2023-01-11T23:23:02.887Z,4.95
2023-01-11T23:25:29.259Z,4.60
2023-01-11T23:27:55.673Z,5.10
2023-01-11T23:30:22.187Z,4.78
2023-01-11T23:32:48.563Z,5.18
2023-01-11T23:35:14.982Z,6.40
2023-01-11T23:37:41.432Z,4.75
2023-01-11T23:40:08.829Z,5.55
2023-01-11T23:42:37.052Z,5.00
2023-01-11T23:45:05.930Z,5.07
2023-01-11T23:47:32.499Z,5.13
2023-01-11T23:50:02.747Z,5.53
2023-01-11T23:52:31.816Z,5.22
2023-01-11T23:54:58.192Z,5.10
2023-01-11T23:57:25.688Z,5.78
2023-01-11T23:59:52.251Z,5.53
